createdAt,value
2022-12-23T00:02:06.221Z,10.19
2022-12-23T00:04:39.383Z,9.98
2022-12-23T00:07:06.132Z,9.88
2022-12-23T00:09:46.192Z,9.63
2022-12-23T00:22:58.784Z,9.97
2022-12-23T00:25:34.638Z,9.82
2022-12-23T00:28:08.159Z,9.78
2022-12-23T00:30:46.324Z,10.34
2022-12-23T00:33:31.172Z,9.76
2022-12-23T00:50:08.141Z,10.37
2022-12-23T00:52:48.174Z,10.20
2022-12-23T00:55:21.993Z,10.38
2022-12-23T00:57:55.156Z,10.19
2022-12-23T01:00:28.798Z,10.36
2022-12-23T01:03:02.392Z,10.10
2022-12-23T01:05:38.287Z,10.15
2022-12-23T01:15:21.183Z,10.06
2022-12-23T01:17:54.636Z,10.48
2022-12-23T01:20:28.164Z,10.64
2022-12-23T01:23:03.952Z,10.70
2022-12-23T01:25:37.710Z,11.14
2022-12-23T01:28:11.421Z,11.08
2022-12-23T01:30:45.149Z,11.13
2022-12-23T01:43:58.183Z,10.50
2022-12-23T01:46:31.444Z,10.63
2022-12-23T01:49:05.154Z,10.00
2022-12-23T01:51:38.553Z,10.37
2022-12-23T01:54:12.171Z,10.28
2022-12-23T02:11:17.132Z,10.52
2022-12-23T02:14:18.177Z,10.80
2022-12-23T02:17:08.730Z,10.16
2022-12-23T02:20:41.176Z,10.35
2022-12-23T02:24:07.208Z,10.90
2022-12-23T02:37:20.108Z,10.07
2022-12-23T02:40:08.148Z,10.51
2022-12-23T02:42:48.969Z,10.42
2022-12-23T02:45:40.179Z,10.34
2022-12-23T02:48:22.825Z,10.46
2022-12-23T03:04:03.182Z,10.30
2022-12-23T03:06:40.965Z,9.82
2022-12-23T03:09:31.150Z,9.70
2022-12-23T03:12:14.892Z,9.92
2022-12-23T03:15:21.145Z,9.52
2022-12-23T03:29:11.133Z,8.91
2022-12-23T03:31:49.891Z,8.93
2022-12-23T03:34:38.773Z,9.21
2022-12-23T03:37:16.759Z,8.91
2022-12-23T03:40:07.129Z,9.43
2022-12-23T03:42:45.484Z,8.84
2022-12-23T03:45:39.208Z,9.27
2022-12-23T03:55:56.091Z,9.04
2022-12-23T03:58:46.144Z,8.71
2022-12-23T04:01:36.795Z,8.46
2022-12-23T04:04:26.163Z,8.23
2022-12-23T04:07:06.895Z,8.67
2022-12-23T04:09:48.137Z,8.06
2022-12-23T04:23:00.149Z,7.92
2022-12-23T04:25:33.447Z,7.91
2022-12-23T04:28:07.185Z,7.60
2022-12-23T04:30:40.466Z,7.37
2022-12-23T04:33:16.413Z,7.42
2022-12-23T04:35:49.486Z,7.09
2022-12-23T04:49:23.104Z,5.89
2022-12-23T04:52:05.119Z,5.53
2022-12-23T04:54:45.539Z,5.55
2022-12-23T04:57:26.200Z,5.48
2022-12-23T04:59:59.461Z,5.28
2022-12-23T05:02:33.230Z,5.26
2022-12-23T05:05:07.524Z,4.97
2022-12-23T05:18:05.083Z,4.76
2022-12-23T05:20:45.113Z,4.90
2022-12-23T05:23:18.437Z,4.63
2022-12-23T05:25:57.110Z,4.80
2022-12-23T05:28:30.856Z,4.61
2022-12-23T05:44:03.118Z,4.95
2022-12-23T05:46:36.500Z,4.86
2022-12-23T05:49:11.731Z,4.95
2022-12-23T05:51:45.399Z,4.56
2022-12-23T05:54:19.119Z,4.47
2022-12-23T06:10:56.072Z,4.86
2022-12-23T06:13:36.112Z,5.11
2022-12-23T06:16:09.452Z,5.11
2022-12-23T06:18:43.091Z,5.03
2022-12-23T06:21:16.364Z,4.90
2022-12-23T06:23:50.105Z,5.22
2022-12-23T06:37:02.132Z,5.72
2022-12-23T06:39:35.402Z,6.05
2022-12-23T06:42:10.164Z,6.18
2022-12-23T06:44:43.452Z,6.07
2022-12-23T06:47:17.104Z,6.24
2022-12-23T06:49:50.490Z,6.51
2022-12-23T07:03:11.175Z,6.34
2022-12-23T07:05:54.121Z,6.63
2022-12-23T07:08:27.362Z,6.65
2022-12-23T07:11:04.104Z,6.54
2022-12-23T07:13:37.371Z,6.70
2022-12-23T07:16:13.099Z,7.08
2022-12-23T07:18:53.688Z,6.88
2022-12-23T07:31:49.126Z,7.22
2022-12-23T07:34:31.085Z,7.10
2022-12-23T07:37:04.567Z,7.38
2022-12-23T07:39:38.095Z,7.03
2022-12-23T07:45:14.077Z,6.95
2022-12-23T07:58:26.098Z,6.47
2022-12-23T08:01:01.041Z,6.53
2022-12-23T08:03:34.126Z,6.51
2022-12-23T08:06:13.074Z,6.22
2022-12-23T08:08:53.147Z,5.92
2022-12-23T08:25:30.468Z,6.24
2022-12-23T08:28:10.120Z,5.82
2022-12-23T08:30:43.659Z,5.55
2022-12-23T08:33:17.103Z,5.00
2022-12-23T08:35:53.892Z,5.37
2022-12-23T08:38:34.083Z,5.37
2022-12-23T08:51:46.151Z,5.46
2022-12-23T08:54:19.373Z,5.61
2022-12-23T08:56:53.182Z,5.56
2022-12-23T08:59:26.701Z,5.44
2022-12-23T09:02:00.168Z,5.18
2022-12-23T09:04:33.513Z,5.43
2022-12-23T09:17:24.125Z,4.46
2022-12-23T09:20:04.125Z,4.58
2022-12-23T09:22:37.360Z,4.24
2022-12-23T09:25:12.149Z,4.28
2022-12-23T09:27:45.297Z,3.90
2022-12-23T09:30:20.086Z,3.89
2022-12-23T09:43:56.115Z,3.46
2022-12-23T09:46:33.846Z,3.36
2022-12-23T09:49:20.692Z,3.42
2022-12-23T09:52:02.684Z,3.16
2022-12-23T09:54:51.178Z,3.14
2022-12-23T09:57:36.603Z,3.23
2022-12-23T10:00:29.075Z,2.75
2022-12-23T10:10:35.040Z,3.63
2022-12-23T10:13:31.103Z,3.35
2022-12-23T10:16:16.488Z,3.57
2022-12-23T10:19:03.120Z,4.20
2022-12-23T10:21:47.784Z,3.87
2022-12-23T10:24:31.059Z,4.18
2022-12-23T10:37:54.081Z,5.18
2022-12-23T10:40:39.150Z,4.89
2022-12-23T10:43:33.108Z,5.14
2022-12-23T10:46:20.564Z,5.30
2022-12-23T10:49:17.067Z,5.58
2022-12-23T11:05:59.077Z,5.30
2022-12-23T11:08:39.092Z,4.67
2022-12-23T11:11:12.553Z,4.74
2022-12-23T11:13:49.108Z,4.87
2022-12-23T11:16:25.412Z,5.07
2022-12-23T11:19:03.111Z,5.23
2022-12-23T11:32:25.061Z,5.10
2022-12-23T11:34:58.398Z,4.85
2022-12-23T11:37:42.075Z,5.30
2022-12-23T11:40:26.560Z,5.42
2022-12-23T11:43:11.045Z,4.97
2022-12-23T11:45:44.423Z,4.67
2022-12-23T11:58:44.051Z,4.43
2022-12-23T12:01:31.453Z,4.06
2022-12-23T12:04:15.905Z,3.93
2022-12-23T12:06:58.076Z,4.00
2022-12-23T12:09:34.114Z,4.13
2022-12-23T12:25:56.113Z,3.54
2022-12-23T12:28:37.225Z,3.99
2022-12-23T12:31:29.316Z,3.85
2022-12-23T12:34:27.159Z,3.91
2022-12-23T12:37:17.107Z,3.88
2022-12-23T12:39:55.852Z,3.99
2022-12-23T12:52:53.024Z,3.83
2022-12-23T12:55:38.093Z,3.91
2022-12-23T12:58:19.445Z,3.99
2022-12-23T13:01:26.080Z,3.59
2022-12-23T13:04:54.506Z,3.42
2022-12-23T13:18:11.073Z,3.86
2022-12-23T13:21:02.111Z,3.71
2022-12-23T13:23:46.511Z,3.70
2022-12-23T13:26:45.035Z,3.81
2022-12-23T13:29:41.608Z,3.31
2022-12-23T13:46:15.093Z,3.30
2022-12-23T13:48:59.636Z,3.53
2022-12-23T13:51:55.063Z,3.56
2022-12-23T13:54:48.635Z,3.79
2022-12-23T13:58:00.036Z,4.14
2022-12-23T14:00:34.639Z,4.40
2022-12-23T14:13:26.000Z,4.52
2022-12-23T14:16:28.158Z,4.59
2022-12-23T14:19:53.036Z,4.48
2022-12-23T14:22:53.117Z,4.64
2022-12-23T14:25:48.263Z,4.47
2022-12-23T14:38:45.002Z,4.87
2022-12-23T14:41:30.046Z,5.18
2022-12-23T14:44:17.948Z,5.65
2022-12-23T14:47:03.123Z,6.12
2022-12-23T14:49:42.400Z,6.57
2022-12-23T15:06:11.068Z,7.32
2022-12-23T15:08:47.353Z,6.95
2022-12-23T15:11:35.381Z,7.41
2022-12-23T15:14:18.095Z,7.21
2022-12-23T15:16:58.049Z,7.10
2022-12-23T15:19:32.421Z,7.41
2022-12-23T15:32:25.051Z,7.79
2022-12-23T15:35:12.043Z,7.90
2022-12-23T15:37:48.996Z,7.98
2022-12-23T15:40:32.083Z,8.18
2022-12-23T15:43:19.662Z,8.08
2022-12-23T15:59:38.059Z,8.25
2022-12-23T16:05:35.093Z,8.08
2022-12-23T16:08:19.351Z,8.27
2022-12-23T16:11:12.073Z,8.55
2022-12-23T16:13:58.677Z,8.54
2022-12-23T16:26:56.052Z,8.75
2022-12-23T16:29:38.086Z,8.94
2022-12-23T16:32:15.860Z,9.23
2022-12-23T16:34:58.027Z,9.27
2022-12-23T16:37:31.263Z,8.92
2022-12-23T16:39:58.112Z,9.05
2022-12-23T16:52:55.000Z,8.60
2022-12-23T16:55:35.040Z,9.03
2022-12-23T16:58:08.438Z,9.04
2022-12-23T17:00:44.035Z,8.64
2022-12-23T17:03:19.123Z,8.84
2022-12-23T17:05:53.070Z,8.93
2022-12-23T17:19:05.698Z,8.63
2022-12-23T17:21:42.188Z,8.78
2022-12-23T17:24:23.024Z,8.65
2022-12-23T17:26:56.367Z,8.88
2022-12-23T17:29:30.025Z,8.69
2022-12-23T17:32:04.116Z,8.55
2022-12-23T17:34:39.082Z,8.08
2022-12-23T17:45:08.988Z,7.14
2022-12-23T17:47:49.057Z,6.82
2022-12-23T17:50:24.943Z,6.72
2022-12-23T17:52:58.008Z,6.86
2022-12-23T17:55:32.469Z,6.71
2022-12-23T17:58:13.060Z,6.55
2022-12-23T18:00:46.379Z,6.64
2022-12-23T18:13:37.032Z,6.64
2022-12-23T18:16:18.079Z,6.01
2022-12-23T18:18:51.320Z,6.33
2022-12-23T18:21:34.726Z,6.54
2022-12-23T18:24:10.450Z,6.56
2022-12-23T18:40:34.005Z,5.76
2022-12-23T18:43:16.697Z,5.94
2022-12-23T18:45:58.013Z,5.53
2022-12-23T18:48:31.247Z,5.35
2022-12-23T18:51:05.029Z,5.60
2022-12-23T18:53:38.263Z,5.60
2022-12-23T18:56:18.068Z,5.69
2022-12-23T19:06:13.959Z,6.50
2022-12-23T19:08:54.047Z,7.01
2022-12-23T19:11:29.508Z,7.58
2022-12-23T19:14:02.978Z,7.65
2022-12-23T19:16:36.433Z,7.86
2022-12-23T19:19:09.987Z,8.18
2022-12-23T19:32:22.060Z,9.48
2022-12-23T19:34:55.215Z,9.45
2022-12-23T19:37:21.941Z,9.89
2022-12-23T19:40:02.056Z,10.05
2022-12-23T19:42:37.409Z,10.33
2022-12-23T19:45:13.064Z,10.55
2022-12-23T19:59:00.053Z,10.20
2022-12-23T20:01:33.373Z,9.75
2022-12-23T20:04:07.044Z,9.61
2022-12-23T20:06:42.179Z,9.85
2022-12-23T20:09:17.995Z,9.63
2022-12-23T20:11:51.241Z,9.64
2022-12-23T20:14:30.439Z,9.85
2022-12-23T20:27:44.976Z,9.60
2022-12-23T20:30:20.804Z,9.18
2022-12-23T20:32:54.045Z,9.04
2022-12-23T20:35:29.082Z,8.85
2022-12-23T20:38:03.033Z,9.13
2022-12-23T20:40:36.411Z,8.95
2022-12-23T20:53:26.959Z,8.35
2022-12-23T20:56:07.001Z,8.50
2022-12-23T20:58:40.793Z,8.55
2022-12-23T21:01:15.025Z,8.00
2022-12-23T21:03:55.516Z,7.17
2022-12-23T21:20:18.039Z,5.85
2022-12-23T21:22:51.247Z,5.39
2022-12-23T21:25:25.016Z,5.36
2022-12-23T21:27:58.219Z,5.46
2022-12-23T21:30:33.729Z,5.44
2022-12-23T21:33:09.579Z,5.42
2022-12-23T21:35:51.999Z,5.34
2022-12-23T21:46:04.011Z,6.15
2022-12-23T21:48:50.042Z,6.37
2022-12-23T21:51:33.348Z,6.27
2022-12-23T21:54:18.972Z,6.53
2022-12-23T21:56:52.176Z,6.85
2022-12-23T21:59:31.114Z,7.06
2022-12-23T22:12:47.038Z,8.29
2022-12-23T22:15:20.197Z,8.86
2022-12-23T22:17:53.971Z,8.69
2022-12-23T22:20:27.216Z,8.89
2022-12-23T22:23:01.018Z,8.15
2022-12-23T22:25:34.845Z,8.55
2022-12-23T22:41:50.045Z,6.70
2022-12-23T22:44:23.207Z,6.43
2022-12-23T22:46:56.968Z,6.33
2022-12-23T22:49:30.353Z,5.75
2022-12-23T22:52:04.018Z,5.94
2022-12-23T22:54:37.260Z,5.60
2022-12-23T23:07:26.980Z,5.66
2022-12-23T23:10:07.387Z,5.42
2022-12-23T23:12:41.767Z,5.30
2022-12-23T23:15:17.025Z,5.20
2022-12-23T23:17:50.322Z,4.74
2022-12-23T23:20:23.964Z,3.95
2022-12-23T23:33:35.956Z,2.85
2022-12-23T23:36:09.930Z,2.62
2022-12-23T23:38:44.245Z,2.89
2022-12-23T23:41:22.578Z,3.17
2022-12-23T23:44:04.057Z,3.16
